createdAt,value
2023-03-15T00:01:28.729Z,4.50
2023-03-15T00:03:57.807Z,5.07
2023-03-15T00:06:26.040Z,4.85
2023-03-15T00:08:54.639Z,5.30
2023-03-15T00:11:26.827Z,4.72
2023-03-15T00:14:00.306Z,5.38
2023-03-15T00:16:28.254Z,5.43
2023-03-15T00:19:03.321Z,4.78
2023-03-15T00:21:31.943Z,4.57
2023-03-15T00:23:59.780Z,4.97
2023-03-15T00:26:29.647Z,4.85
2023-03-15T00:28:58.217Z,4.93
2023-03-15T00:31:32.702Z,5.40
2023-03-15T00:34:00.885Z,5.13
2023-03-15T00:36:29.474Z,5.68
2023-03-15T00:38:58.050Z,5.13
2023-03-15T00:41:26.741Z,5.47
2023-03-15T00:43:56.098Z,4.90
2023-03-15T00:46:24.585Z,5.20
2023-03-15T00:48:52.960Z,5.03
2023-03-15T00:51:22.389Z,5.20
2023-03-15T00:53:52.723Z,5.47
2023-03-15T00:56:26.885Z,4.82
2023-03-15T00:58:56.386Z,4.80
2023-03-15T01:01:28.379Z,4.80
2023-03-15T01:03:57.382Z,4.85
2023-03-15T01:06:27.711Z,5.30
2023-03-15T01:08:57.218Z,5.50
2023-03-15T01:11:27.543Z,5.15
2023-03-15T01:13:57.777Z,5.50
2023-03-15T01:18:56.831Z,4.50
2023-03-15T01:21:24.881Z,4.45
2023-03-15T01:23:54.302Z,4.60
2023-03-15T01:26:24.531Z,4.32
2023-03-15T01:28:52.832Z,4.88
2023-03-15T01:31:23.292Z,4.13
2023-03-15T01:33:52.061Z,4.83
2023-03-15T01:36:20.400Z,4.22
2023-03-15T01:38:49.936Z,4.15
2023-03-15T01:41:22.501Z,4.60
2023-03-15T01:43:51.246Z,4.93
2023-03-15T01:46:35.298Z,5.20
2023-03-15T01:49:23.208Z,4.30
2023-03-15T01:52:07.628Z,4.15
2023-03-15T01:54:59.919Z,4.10
2023-03-15T01:57:46.374Z,4.20
2023-03-15T02:00:16.896Z,4.20
2023-03-15T02:03:27.283Z,4.30
2023-03-15T02:06:01.659Z,4.82
2023-03-15T02:08:56.750Z,5.38
2023-03-15T02:11:26.735Z,5.75
2023-03-15T02:13:58.454Z,7.13
2023-03-15T02:16:26.939Z,5.90
2023-03-15T02:19:00.737Z,4.20
2023-03-15T02:22:09.842Z,3.92
2023-03-15T02:24:53.094Z,3.10
2023-03-15T02:27:30.931Z,3.55
2023-03-15T02:30:00.230Z,3.80
2023-03-15T02:32:30.501Z,3.60
2023-03-15T02:34:58.993Z,3.72
2023-03-15T02:37:26.979Z,3.17
2023-03-15T02:39:56.128Z,3.67
2023-03-15T02:42:25.141Z,3.22
2023-03-15T02:44:55.071Z,3.25
2023-03-15T02:47:25.825Z,3.40
2023-03-15T02:49:54.127Z,3.20
2023-03-15T02:52:22.723Z,3.28
2023-03-15T02:54:51.341Z,3.75
2023-03-15T02:57:19.929Z,3.38
2023-03-15T02:59:51.206Z,3.55
2023-03-15T03:02:26.376Z,3.60
2023-03-15T03:04:54.964Z,3.60
2023-03-15T03:07:23.838Z,3.83
2023-03-15T03:10:02.686Z,3.35
2023-03-15T03:12:39.855Z,3.10
2023-03-15T03:15:10.614Z,3.35
2023-03-15T03:17:40.253Z,3.58
2023-03-15T03:20:10.601Z,3.67
2023-03-15T03:22:45.213Z,3.40
2023-03-15T03:25:13.698Z,3.08
2023-03-15T03:27:41.821Z,3.40
2023-03-15T03:30:12.797Z,4.00
2023-03-15T03:32:44.963Z,3.40
2023-03-15T03:35:16.226Z,3.40
2023-03-15T03:37:44.888Z,3.75
2023-03-15T03:40:20.447Z,3.60
2023-03-15T03:42:49.812Z,3.88
2023-03-15T03:45:22.199Z,3.83
2023-03-15T03:47:55.567Z,3.47
2023-03-15T03:50:23.676Z,3.72
2023-03-15T03:52:56.182Z,3.05
2023-03-15T03:55:28.577Z,4.10
2023-03-15T03:57:57.123Z,4.22
2023-03-15T04:00:57.403Z,3.53
2023-03-15T04:03:28.785Z,4.35
2023-03-15T04:06:06.027Z,4.30
2023-03-15T04:08:39.358Z,4.20
2023-03-15T04:11:09.355Z,4.15
2023-03-15T04:13:41.729Z,4.13
2023-03-15T04:16:10.514Z,4.18
2023-03-15T04:18:56.558Z,4.15
2023-03-15T04:21:25.690Z,3.78
2023-03-15T04:24:00.180Z,4.13
2023-03-15T04:26:47.027Z,3.95
2023-03-15T04:29:34.775Z,4.15
2023-03-15T04:32:19.113Z,3.92
2023-03-15T04:34:56.289Z,4.22
2023-03-15T04:37:38.162Z,4.47
2023-03-15T04:40:20.470Z,4.65
2023-03-15T04:43:09.028Z,4.15
2023-03-15T04:45:52.159Z,4.93
2023-03-15T04:48:37.336Z,4.60
2023-03-15T04:51:12.449Z,4.03
2023-03-15T04:53:51.079Z,4.38
2023-03-15T04:56:37.783Z,3.67
2023-03-15T04:59:25.064Z,3.95
2023-03-15T05:02:12.776Z,4.35
2023-03-15T05:05:01.810Z,4.10
2023-03-15T05:08:49.150Z,4.55
2023-03-15T05:12:31.524Z,4.10
2023-03-15T05:16:14.599Z,3.92
2023-03-15T05:19:04.314Z,3.63
2023-03-15T05:22:02.597Z,4.18
2023-03-15T05:24:57.875Z,4.45
2023-03-15T05:27:53.226Z,4.15
2023-03-15T05:30:36.680Z,4.25
2023-03-15T05:33:27.495Z,3.70
2023-03-15T05:36:32.028Z,4.07
2023-03-15T05:39:23.241Z,4.18
2023-03-15T05:41:57.526Z,4.15
2023-03-15T05:44:37.713Z,4.22
2023-03-15T05:47:33.220Z,4.97
2023-03-15T05:50:02.761Z,4.80
2023-03-15T05:52:46.445Z,4.80
2023-03-15T05:55:40.067Z,4.15
2023-03-15T05:58:30.896Z,4.28
2023-03-15T06:01:08.397Z,4.15
2023-03-15T06:04:00.903Z,4.80
2023-03-15T06:06:34.033Z,5.53
2023-03-15T06:09:04.608Z,3.90
2023-03-15T06:11:34.762Z,4.53
2023-03-15T06:14:04.542Z,4.65
2023-03-15T06:16:53.702Z,4.70
2023-03-15T06:19:25.297Z,4.53
2023-03-15T06:21:55.510Z,4.85
2023-03-15T06:24:32.499Z,5.18
2023-03-15T06:27:01.886Z,4.80
2023-03-15T06:29:30.431Z,6.20
2023-03-15T06:32:00.912Z,5.30
2023-03-15T06:34:30.494Z,4.88
2023-03-15T06:37:02.066Z,4.57
2023-03-15T06:39:34.894Z,4.93
2023-03-15T06:42:04.755Z,5.10
2023-03-15T06:44:37.592Z,5.13
2023-03-15T06:47:10.070Z,5.45
2023-03-15T06:49:42.315Z,4.85
2023-03-15T06:52:12.783Z,6.05
2023-03-15T06:54:40.760Z,5.55
2023-03-15T06:57:10.325Z,5.15
2023-03-15T06:59:38.877Z,4.95
2023-03-15T07:02:08.420Z,4.72
2023-03-15T07:04:37.610Z,5.28
2023-03-15T07:07:05.445Z,4.90
2023-03-15T07:09:33.760Z,4.95
2023-03-15T07:12:02.217Z,5.15
2023-03-15T07:14:30.789Z,4.90
2023-03-15T07:16:58.678Z,5.60
2023-03-15T07:19:27.149Z,4.60
2023-03-15T07:21:57.707Z,32.20
2023-03-15T07:24:27.529Z,4.97
2023-03-15T07:26:56.949Z,5.57
2023-03-15T07:29:25.831Z,5.72
2023-03-15T07:31:54.104Z,5.68
2023-03-15T07:34:23.038Z,5.90
2023-03-15T07:36:51.197Z,5.30
2023-03-15T07:39:20.813Z,6.55
2023-03-15T07:41:50.625Z,6.15
2023-03-15T07:44:24.227Z,6.65
2023-03-15T07:46:52.106Z,6.68
2023-03-15T07:49:21.065Z,6.47
2023-03-15T07:51:49.026Z,6.18
2023-03-15T07:54:17.017Z,5.78
2023-03-15T07:56:46.205Z,6.40
2023-03-15T07:59:14.097Z,14.95
2023-03-15T08:01:44.378Z,5.53
2023-03-15T08:04:13.436Z,6.95
2023-03-15T08:06:47.267Z,6.53
2023-03-15T08:09:15.083Z,7.63
2023-03-15T08:11:44.655Z,7.20
2023-03-15T08:14:14.172Z,7.33
2023-03-15T08:16:44.107Z,7.38
2023-03-15T08:19:18.351Z,8.23
2023-03-15T08:21:49.149Z,7.20
2023-03-15T08:24:17.152Z,7.00
2023-03-15T08:26:46.328Z,7.50
2023-03-15T08:29:16.143Z,7.55
2023-03-15T08:31:44.289Z,7.50
2023-03-15T08:34:12.796Z,7.15
2023-03-15T08:36:56.563Z,7.40
2023-03-15T08:39:25.051Z,6.70
2023-03-15T08:41:54.214Z,7.18
2023-03-15T08:44:27.523Z,7.15
2023-03-15T08:46:56.100Z,7.60
2023-03-15T08:49:24.912Z,8.45
2023-03-15T08:51:56.168Z,9.13
2023-03-15T08:54:24.368Z,7.82
2023-03-15T08:56:55.810Z,8.52
2023-03-15T08:59:31.828Z,8.82
2023-03-15T09:02:02.248Z,9.77
2023-03-15T09:04:34.311Z,9.75
2023-03-15T09:07:02.641Z,9.90
2023-03-15T09:09:37.742Z,11.25
2023-03-15T09:12:06.327Z,10.15
2023-03-15T09:14:34.372Z,10.20
2023-03-15T09:17:06.360Z,8.98
2023-03-15T09:19:34.753Z,9.63
2023-03-15T09:22:17.006Z,10.43
2023-03-15T09:24:52.887Z,10.27
2023-03-15T09:27:21.145Z,10.18
2023-03-15T09:29:50.359Z,9.65
2023-03-15T09:32:18.850Z,9.88
2023-03-15T09:34:46.722Z,10.10
2023-03-15T09:37:14.576Z,9.60
2023-03-15T09:39:43.406Z,9.35
2023-03-15T09:42:18.858Z,9.05
2023-03-15T09:45:01.109Z,9.18
2023-03-15T09:47:51.927Z,9.38
2023-03-15T09:50:36.039Z,8.45
2023-03-15T09:53:09.594Z,9.80
2023-03-15T09:55:38.740Z,9.98
2023-03-15T09:58:13.087Z,9.57
2023-03-15T10:01:13.768Z,14.15
2023-03-15T10:03:51.398Z,10.07
2023-03-15T10:06:29.839Z,8.20
2023-03-15T10:08:58.998Z,9.70
2023-03-15T10:12:05.848Z,10.98
2023-03-15T10:15:05.524Z,9.90
2023-03-15T10:17:52.405Z,10.98
2023-03-15T10:20:42.169Z,11.43
2023-03-15T10:23:13.239Z,16.85
2023-03-15T10:25:41.462Z,9.35
2023-03-15T10:28:31.323Z,10.13
2023-03-15T10:31:13.867Z,18.95
2023-03-15T10:33:50.498Z,10.43
2023-03-15T10:36:23.740Z,11.63
2023-03-15T10:38:51.812Z,10.15
2023-03-15T10:41:46.841Z,10.48
2023-03-15T10:44:26.718Z,9.93
2023-03-15T10:47:16.096Z,10.20
2023-03-15T10:49:58.596Z,10.57
2023-03-15T10:52:35.780Z,10.77
2023-03-15T10:55:12.047Z,10.80
2023-03-15T10:57:42.654Z,10.77
2023-03-15T11:00:43.999Z,10.07
2023-03-15T11:03:23.097Z,11.52
2023-03-15T11:05:55.222Z,11.15
2023-03-15T11:08:37.671Z,11.10
2023-03-15T11:11:05.744Z,11.00
2023-03-15T11:13:41.129Z,11.30
2023-03-15T11:16:15.476Z,11.93
2023-03-15T11:19:17.131Z,11.10
2023-03-15T11:21:45.885Z,12.40
2023-03-15T11:24:27.205Z,12.32
2023-03-15T11:26:56.984Z,12.02
2023-03-15T11:29:33.236Z,12.05
2023-03-15T11:32:02.744Z,12.27
2023-03-15T11:34:39.516Z,12.30
2023-03-15T11:37:21.706Z,12.43
2023-03-15T11:40:11.602Z,13.20
2023-03-15T11:42:58.235Z,12.48
2023-03-15T11:45:36.533Z,12.75
2023-03-15T11:48:27.173Z,12.45
2023-03-15T11:50:55.534Z,13.90
2023-03-15T11:53:25.545Z,12.57
2023-03-15T11:55:54.653Z,12.57
2023-03-15T11:58:35.869Z,13.23
2023-03-15T12:03:35.596Z,12.95
2023-03-15T12:06:21.500Z,15.38
2023-03-15T12:09:13.483Z,13.57
2023-03-15T12:11:45.822Z,13.02
2023-03-15T12:14:43.829Z,12.57
2023-03-15T12:17:29.719Z,12.50
2023-03-15T12:20:12.404Z,13.00
2023-03-15T12:22:43.862Z,11.95
2023-03-15T12:25:17.007Z,13.90
2023-03-15T12:27:51.365Z,14.20
2023-03-15T12:30:30.386Z,13.27
2023-03-15T12:32:58.664Z,12.93
2023-03-15T12:35:30.521Z,13.05
2023-03-15T12:37:58.974Z,13.40
2023-03-15T12:40:39.341Z,13.65
2023-03-15T12:43:08.488Z,15.32
2023-03-15T12:45:41.807Z,12.85
2023-03-15T12:48:13.016Z,41.25
2023-03-15T12:51:04.614Z,14.38
2023-03-15T12:53:37.472Z,14.75
2023-03-15T12:56:42.345Z,17.13
2023-03-15T12:59:49.129Z,12.43
2023-03-15T13:02:41.843Z,24.08
2023-03-15T13:05:47.078Z,12.10
2023-03-15T13:08:17.346Z,12.68
2023-03-15T13:11:15.181Z,11.20
2023-03-15T13:14:14.262Z,82.38
2023-03-15T13:17:02.372Z,21.27
2023-03-15T13:19:38.500Z,13.43
2023-03-15T13:22:15.243Z,13.38
2023-03-15T13:24:50.076Z,12.18
2023-03-15T13:27:36.772Z,50.33
2023-03-15T13:30:36.791Z,14.45
2023-03-15T13:33:08.653Z,11.90
2023-03-15T13:35:48.401Z,12.02
2023-03-15T13:38:45.676Z,17.73
2023-03-15T13:41:23.399Z,11.02
2023-03-15T13:43:53.247Z,15.60
2023-03-15T13:46:25.703Z,15.02
2023-03-15T13:48:54.717Z,11.82
2023-03-15T13:51:31.176Z,12.32
2023-03-15T13:54:07.201Z,11.32
2023-03-15T13:56:48.522Z,13.07
2023-03-15T13:59:18.116Z,10.20
2023-03-15T14:01:46.938Z,10.20
2023-03-15T14:04:17.389Z,10.20
2023-03-15T14:06:48.014Z,9.35
2023-03-15T14:09:29.212Z,10.38
2023-03-15T14:12:19.751Z,10.32
2023-03-15T14:14:53.304Z,10.63
2023-03-15T14:17:27.454Z,11.85
2023-03-15T14:20:07.217Z,11.95
2023-03-15T14:22:36.812Z,12.77
2023-03-15T14:25:19.636Z,11.70
2023-03-15T14:27:48.137Z,12.52
2023-03-15T14:30:23.652Z,12.45
2023-03-15T14:32:53.674Z,11.68
2023-03-15T14:35:25.587Z,11.45
2023-03-15T14:38:20.174Z,10.73
2023-03-15T14:40:48.951Z,13.90
2023-03-15T14:43:17.055Z,14.13
2023-03-15T14:45:48.709Z,12.10
2023-03-15T14:48:30.232Z,10.52
2023-03-15T14:50:57.871Z,9.93
2023-03-15T14:53:26.412Z,9.30
2023-03-15T14:55:56.605Z,14.10
2023-03-15T14:58:25.142Z,11.32
2023-03-15T15:00:56.061Z,9.50
2023-03-15T15:03:32.176Z,10.15
2023-03-15T15:06:01.105Z,9.70
2023-03-15T15:08:28.996Z,9.70
2023-03-15T15:10:57.033Z,10.20
2023-03-15T15:13:27.037Z,9.95
2023-03-15T15:15:56.709Z,9.57
2023-03-15T15:18:25.903Z,9.18
2023-03-15T15:20:56.396Z,11.20
2023-03-15T15:23:30.654Z,10.98
2023-03-15T15:26:06.086Z,11.18
2023-03-15T15:28:37.177Z,11.63
2023-03-15T15:31:07.652Z,14.18
2023-03-15T15:33:35.777Z,16.20
2023-03-15T15:36:10.414Z,19.27
2023-03-15T15:38:40.615Z,22.58
2023-03-15T15:41:47.652Z,22.80
2023-03-15T15:44:20.551Z,17.02
2023-03-15T15:46:49.113Z,17.23
2023-03-15T15:49:17.230Z,16.40
2023-03-15T15:51:49.284Z,12.05
2023-03-15T15:56:52.644Z,11.63
2023-03-15T15:59:20.643Z,12.93
2023-03-15T16:02:00.132Z,14.65
2023-03-15T16:04:29.900Z,14.90
2023-03-15T16:07:02.213Z,12.20
2023-03-15T16:09:32.712Z,10.38
2023-03-15T16:12:04.104Z,10.75
2023-03-15T16:14:33.001Z,11.35
2023-03-15T16:17:01.657Z,9.38
2023-03-15T16:19:31.758Z,10.50
2023-03-15T16:22:00.463Z,11.20
2023-03-15T16:24:30.541Z,10.65
2023-03-15T16:27:03.877Z,9.50
2023-03-15T16:29:39.848Z,10.00
2023-03-15T16:32:18.008Z,10.40
2023-03-15T16:34:48.544Z,26.38
2023-03-15T16:37:35.222Z,14.40
2023-03-15T16:40:10.492Z,13.02
2023-03-15T16:42:39.546Z,10.57
2023-03-15T16:45:14.566Z,9.82
2023-03-15T16:47:42.942Z,9.50
2023-03-15T16:50:11.774Z,10.95
2023-03-15T16:52:42.586Z,9.00
2023-03-15T16:55:15.658Z,8.73
2023-03-15T16:57:47.354Z,10.00
2023-03-15T17:00:20.911Z,11.45
2023-03-15T17:02:53.442Z,10.95
2023-03-15T17:05:24.690Z,9.93
2023-03-15T17:07:54.077Z,9.77
2023-03-15T17:10:32.365Z,10.57
2023-03-15T17:13:03.356Z,10.63
2023-03-15T17:15:32.927Z,10.75
2023-03-15T17:18:02.945Z,9.98
2023-03-15T17:20:38.307Z,11.98
2023-03-15T17:23:07.805Z,14.07
2023-03-15T17:25:36.023Z,14.52
2023-03-15T17:28:06.253Z,12.45
2023-03-15T17:30:36.049Z,10.38
2023-03-15T17:33:05.628Z,10.55
2023-03-15T17:35:39.154Z,8.93
2023-03-15T17:38:07.570Z,10.00
2023-03-15T17:40:36.489Z,8.88
2023-03-15T17:43:04.726Z,7.65
2023-03-15T17:45:33.474Z,8.43
2023-03-15T17:48:01.854Z,7.55
2023-03-15T17:50:32.315Z,7.97
2023-03-15T17:53:02.523Z,9.02
2023-03-15T17:55:34.692Z,7.78
2023-03-15T17:58:06.326Z,7.65
2023-03-15T18:00:34.486Z,9.85
2023-03-15T18:03:02.288Z,7.30
2023-03-15T18:05:30.783Z,7.43
2023-03-15T18:08:05.459Z,8.65
2023-03-15T18:10:38.709Z,7.68
2023-03-15T18:13:07.709Z,7.90
2023-03-15T18:15:38.066Z,8.45
2023-03-15T18:18:08.234Z,8.23
2023-03-15T18:20:37.077Z,15.65
2023-03-15T18:23:08.269Z,15.93
2023-03-15T18:25:36.666Z,19.08
2023-03-15T18:28:05.807Z,8.95
2023-03-15T18:30:34.262Z,9.57
2023-03-15T18:33:04.213Z,9.48
2023-03-15T18:35:33.774Z,11.20
2023-03-15T18:38:02.586Z,9.70
2023-03-15T18:40:32.665Z,9.65
2023-03-15T18:43:03.713Z,8.88
2023-03-15T18:45:36.343Z,10.93
2023-03-15T18:48:04.856Z,9.90
2023-03-15T18:50:33.939Z,10.63
2023-03-15T18:53:04.003Z,9.70
2023-03-15T18:55:33.973Z,10.93
2023-03-15T18:58:02.114Z,10.38
2023-03-15T19:00:36.247Z,12.90
2023-03-15T19:03:04.798Z,12.90
2023-03-15T19:05:36.360Z,17.48
2023-03-15T19:10:32.439Z,17.33
2023-03-15T19:13:01.236Z,15.20
2023-03-15T19:15:30.381Z,17.13
2023-03-15T19:17:58.475Z,18.65
2023-03-15T19:20:32.960Z,18.73
2023-03-15T19:23:02.181Z,16.95
2023-03-15T19:25:30.452Z,15.18
2023-03-15T19:28:02.664Z,15.73
2023-03-15T19:30:33.079Z,15.07
2023-03-15T19:33:01.758Z,16.20
2023-03-15T19:35:30.998Z,15.75
2023-03-15T19:38:00.650Z,16.13
2023-03-15T19:40:29.291Z,15.07
2023-03-15T19:42:57.985Z,14.20
2023-03-15T19:45:26.484Z,15.38
2023-03-15T19:47:57.456Z,15.98
2023-03-15T19:50:31.235Z,17.08
2023-03-15T19:53:02.021Z,16.60
2023-03-15T19:55:32.102Z,16.55
2023-03-15T19:57:59.763Z,15.57
2023-03-15T20:00:27.718Z,15.13
2023-03-15T20:02:56.167Z,15.07
2023-03-15T20:05:25.924Z,17.40
2023-03-15T20:07:54.684Z,55.63
2023-03-15T20:10:24.054Z,87.20
2023-03-15T20:12:59.212Z,16.67
2023-03-15T20:15:29.390Z,14.13
2023-03-15T20:17:57.906Z,15.75
2023-03-15T20:20:26.346Z,15.43
2023-03-15T20:22:55.526Z,14.82
2023-03-15T20:25:25.582Z,16.30
2023-03-15T20:27:54.050Z,18.13
2023-03-15T20:30:23.144Z,17.40
2023-03-15T20:32:55.036Z,17.80
2023-03-15T20:35:23.483Z,17.52
2023-03-15T20:37:54.138Z,17.75
2023-03-15T20:40:22.378Z,17.85
2023-03-15T20:42:57.151Z,19.05
2023-03-15T20:45:24.954Z,18.42
2023-03-15T20:47:53.480Z,18.10
2023-03-15T20:50:23.560Z,18.67
2023-03-15T20:52:52.328Z,28.42
2023-03-15T20:55:21.529Z,20.77
2023-03-15T20:57:49.786Z,25.80
2023-03-15T21:00:20.465Z,20.98
2023-03-15T21:02:49.913Z,19.13
2023-03-15T21:05:19.223Z,19.00
2023-03-15T21:07:47.638Z,17.83
2023-03-15T21:10:17.143Z,15.43
2023-03-15T21:12:47.345Z,15.48
2023-03-15T21:15:19.863Z,16.48
2023-03-15T21:17:49.889Z,15.15
2023-03-15T21:20:18.637Z,16.42
2023-03-15T21:22:53.853Z,14.77
2023-03-15T21:25:21.920Z,15.45
2023-03-15T21:27:49.755Z,14.93
2023-03-15T21:30:19.268Z,15.38
2023-03-15T21:32:48.072Z,15.63
2023-03-15T21:35:22.474Z,14.98
2023-03-15T21:37:50.873Z,16.33
2023-03-15T21:40:18.761Z,16.92
2023-03-15T21:42:48.029Z,17.48
2023-03-15T21:45:16.831Z,15.88
2023-03-15T21:47:53.080Z,18.60
2023-03-15T21:50:23.616Z,18.30
2023-03-15T21:52:52.139Z,18.75
2023-03-15T21:55:21.107Z,19.90
2023-03-15T21:57:48.953Z,24.15
2023-03-15T22:00:19.925Z,23.92
2023-03-15T22:02:48.245Z,22.70
2023-03-15T22:05:17.041Z,23.23
2023-03-15T22:07:46.901Z,25.17
2023-03-15T22:10:15.938Z,24.52
2023-03-15T22:12:44.425Z,26.98
2023-03-15T22:15:13.683Z,29.48
2023-03-15T22:17:42.300Z,28.83
2023-03-15T22:20:17.005Z,29.80
2023-03-15T22:22:46.543Z,29.23
2023-03-15T22:25:15.003Z,31.92
2023-03-15T22:27:43.537Z,32.33
2023-03-15T22:30:16.135Z,33.72
2023-03-15T22:32:48.383Z,35.10
2023-03-15T22:35:16.732Z,34.78
2023-03-15T22:37:44.918Z,36.53
2023-03-15T22:40:14.821Z,36.70
2023-03-15T22:42:43.377Z,37.17
2023-03-15T22:45:12.148Z,35.00
2023-03-15T22:47:41.885Z,34.85
2023-03-15T22:50:13.578Z,35.55
2023-03-15T22:52:42.233Z,35.80
2023-03-15T22:55:11.979Z,34.33
2023-03-15T22:57:43.075Z,34.95
2023-03-15T23:00:14.178Z,35.63
2023-03-15T23:02:42.989Z,33.97
2023-03-15T23:05:12.717Z,35.03
2023-03-15T23:07:40.989Z,35.42
2023-03-15T23:10:11.748Z,34.17
2023-03-15T23:12:41.543Z,33.47
2023-03-15T23:15:09.904Z,31.45
2023-03-15T23:17:38.531Z,32.15
2023-03-15T23:20:07.644Z,31.70
2023-03-15T23:22:37.971Z,33.42
2023-03-15T23:25:06.260Z,30.85
2023-03-15T23:27:34.326Z,32.65
2023-03-15T23:30:05.672Z,30.80
2023-03-15T23:32:38.040Z,29.75
2023-03-15T23:35:13.050Z,27.17
2023-03-15T23:37:43.316Z,24.80
2023-03-15T23:40:14.058Z,25.02
2023-03-15T23:42:45.520Z,24.50
2023-03-15T23:45:15.509Z,25.40
2023-03-15T23:47:47.222Z,25.15
2023-03-15T23:50:17.586Z,23.55
2023-03-15T23:52:45.610Z,26.60
2023-03-15T23:55:13.643Z,27.35
2023-03-15T23:57:43.509Z,25.50
